JBU4312 KLAX-KDEN
Flight info
| Callsign | JBU4312 |
|---|---|
| Flight time | 1h 37m |
| Altitude | 37000 |
| Route | ORCKA5 LAS J146 DICEE BUMMP SSKII4 |
| Aircraft | A321/M-SDE3FGHIRWY/LB1 |
Departure
| Time | 2026-05-04 01:55 |
|---|---|
| Airport | Los Angeles International Airport (KLAX) |
Arrival
| Time | 2026-05-04 03:32 |
|---|---|
| Airport | Denver International Airport (KDEN) |
| Time | Latitude | Longitude | Altitude | Speed | Heading |
|---|---|---|---|---|---|
| 2026-05-04 01:32 | 33.94786 | -118.40174 | 96 ft | 0 kts | 141° |
| 2026-05-04 01:50 | 33.94799 | -118.40186 | 96 ft | 2 kts | 141° |
| 2026-05-04 01:50 | 33.94811 | -118.40198 | 95 ft | 2 kts | 141° |
| 2026-05-04 01:50 | 33.94824 | -118.40211 | 97 ft | 2 kts | 126° |
| 2026-05-04 01:50 | 33.94832 | -118.40229 | 98 ft | 3 kts | 98° |
| 2026-05-04 01:51 | 33.94833 | -118.40241 | 95 ft | 0 kts | 86° |
| 2026-05-04 01:52 | 33.94833 | -118.40233 | 96 ft | 2 kts | 86° |
| 2026-05-04 01:52 | 33.94836 | -118.40183 | 96 ft | 9 kts | 86° |
| 2026-05-04 01:52 | 33.94845 | -118.40101 | 98 ft | 10 kts | 62° |
| 2026-05-04 01:53 | 33.94902 | -118.40068 | 100 ft | 8 kts | 27° |
| 2026-05-04 01:53 | 33.94928 | -118.40013 | 100 ft | 8 kts | 79° |
| 2026-05-04 01:53 | 33.94940 | -118.39945 | 100 ft | 6 kts | 63° |
| 2026-05-04 01:53 | 33.94946 | -118.39936 | 101 ft | 0 kts | 52° |
| 2026-05-04 01:54 | 33.94964 | -118.39919 | 103 ft | 9 kts | 28° |
| 2026-05-04 01:54 | 33.95038 | -118.39976 | 109 ft | 22 kts | 274° |
| 2026-05-04 01:54 | 33.95012 | -118.40237 | 109 ft | 39 kts | 263° |
| 2026-05-04 01:55 | 33.94956 | -118.40777 | 110 ft | 100 kts | 262° |
| 2026-05-04 01:55 | 33.94846 | -118.41862 | 119 ft | 156 kts | 263° |
| 2026-05-04 01:55 | 33.94710 | -118.43211 | 582 ft | 171 kts | 262° |
| 2026-05-04 01:55 | 33.94561 | -118.44696 | 1187 ft | 185 kts | 262° |
| 2026-05-04 01:56 | 33.94403 | -118.46278 | 1861 ft | 193 kts | 262° |
| 2026-05-04 01:56 | 33.94243 | -118.47871 | 2545 ft | 192 kts | 263° |
| 2026-05-04 01:56 | 33.94080 | -118.49493 | 3076 ft | 199 kts | 263° |
| 2026-05-04 01:56 | 33.93913 | -118.51185 | 3565 ft | 210 kts | 263° |
| 2026-05-04 01:57 | 33.93733 | -118.53011 | 4079 ft | 228 kts | 263° |
| 2026-05-04 01:57 | 33.93543 | -118.54937 | 4607 ft | 236 kts | 263° |
| 2026-05-04 01:57 | 33.93347 | -118.56916 | 5116 ft | 239 kts | 263° |
| 2026-05-04 01:57 | 33.93136 | -118.58900 | 5621 ft | 239 kts | 262° |
| 2026-05-04 01:58 | 33.92910 | -118.60891 | 6136 ft | 241 kts | 262° |
| 2026-05-04 01:58 | 33.92678 | -118.62888 | 6631 ft | 242 kts | 262° |
| 2026-05-04 01:58 | 33.92448 | -118.64903 | 7114 ft | 244 kts | 262° |
| 2026-05-04 01:58 | 33.92226 | -118.66936 | 7603 ft | 245 kts | 262° |
| 2026-05-04 01:59 | 33.92017 | -118.68973 | 8102 ft | 247 kts | 262° |
| 2026-05-04 01:59 | 33.91815 | -118.71038 | 8610 ft | 249 kts | 262° |
| 2026-05-04 01:59 | 33.91623 | -118.73115 | 9121 ft | 251 kts | 262° |
| 2026-05-04 01:59 | 33.91441 | -118.75208 | 9640 ft | 253 kts | 262° |
| 2026-05-04 02:00 | 33.91267 | -118.77328 | 10140 ft | 255 kts | 262° |
| 2026-05-04 02:00 | 33.91023 | -118.79432 | 10617 ft | 255 kts | 250° |
| 2026-05-04 02:00 | 33.90116 | -118.81240 | 11110 ft | 254 kts | 224° |
| 2026-05-04 02:00 | 33.88609 | -118.82394 | 11610 ft | 265 kts | 199° |
| 2026-05-04 02:01 | 33.86746 | -118.82607 | 12117 ft | 281 kts | 173° |
| 2026-05-04 02:01 | 33.84931 | -118.81677 | 12625 ft | 299 kts | 144° |
| 2026-05-04 02:01 | 33.83605 | -118.79605 | 12957 ft | 328 kts | 116° |
| 2026-05-04 02:01 | 33.83186 | -118.76843 | 13010 ft | 356 kts | 90° |
| 2026-05-04 02:02 | 33.83598 | -118.73830 | 13007 ft | 366 kts | 75° |
| 2026-05-04 02:02 | 33.84458 | -118.70972 | 13008 ft | 369 kts | 68° |
| 2026-05-04 02:02 | 33.85510 | -118.68164 | 13013 ft | 370 kts | 66° |
| 2026-05-04 02:02 | 33.86581 | -118.65353 | 13007 ft | 370 kts | 68° |
| 2026-05-04 02:03 | 33.87589 | -118.62507 | 13010 ft | 370 kts | 69° |
| 2026-05-04 02:03 | 33.88521 | -118.59595 | 13362 ft | 374 kts | 72° |
| 2026-05-04 02:03 | 33.89392 | -118.56646 | 14098 ft | 376 kts | 73° |
| 2026-05-04 02:03 | 33.90241 | -118.53634 | 14670 ft | 382 kts | 73° |
| 2026-05-04 02:04 | 33.91085 | -118.50580 | 15187 ft | 389 kts | 73° |
| 2026-05-04 02:04 | 33.91945 | -118.47468 | 15719 ft | 395 kts | 73° |
| 2026-05-04 02:04 | 33.92905 | -118.44325 | 16232 ft | 403 kts | 65° |
| 2026-05-04 02:04 | 33.94334 | -118.41399 | 16750 ft | 410 kts | 55° |
| 2026-05-04 02:05 | 33.95959 | -118.38550 | 17287 ft | 416 kts | 54° |
| 2026-05-04 02:05 | 33.97613 | -118.35659 | 17834 ft | 422 kts | 54° |
| 2026-05-04 02:05 | 33.99288 | -118.32726 | 18358 ft | 428 kts | 54° |
| 2026-05-04 02:05 | 34.00980 | -118.29749 | 18812 ft | 433 kts | 54° |
| 2026-05-04 02:06 | 34.02683 | -118.26741 | 19271 ft | 438 kts | 54° |
| 2026-05-04 02:06 | 34.04410 | -118.23686 | 19755 ft | 443 kts | 54° |
| 2026-05-04 02:06 | 34.06155 | -118.20601 | 20232 ft | 448 kts | 54° |
| 2026-05-04 02:06 | 34.07921 | -118.17481 | 20702 ft | 453 kts | 54° |
| 2026-05-04 02:07 | 34.09682 | -118.14368 | 21172 ft | 458 kts | 54° |
| 2026-05-04 02:07 | 34.11509 | -118.11140 | 21649 ft | 462 kts | 53° |
| 2026-05-04 02:07 | 34.13327 | -118.07927 | 22117 ft | 467 kts | 53° |
| 2026-05-04 02:07 | 34.15149 | -118.04700 | 22591 ft | 472 kts | 53° |
| 2026-05-04 02:08 | 34.17004 | -118.01408 | 23057 ft | 477 kts | 53° |
| 2026-05-04 02:08 | 34.18875 | -117.98079 | 23536 ft | 482 kts | 54° |
| 2026-05-04 02:08 | 34.20759 | -117.94725 | 23931 ft | 485 kts | 53° |
| 2026-05-04 02:08 | 34.22665 | -117.91332 | 24334 ft | 489 kts | 53° |
| 2026-05-04 02:09 | 34.24577 | -117.87926 | 24665 ft | 493 kts | 53° |
| 2026-05-04 02:09 | 34.26510 | -117.84480 | 25064 ft | 496 kts | 53° |
| 2026-05-04 02:09 | 34.28453 | -117.81013 | 25468 ft | 499 kts | 53° |
| 2026-05-04 02:09 | 34.30398 | -117.77536 | 25869 ft | 501 kts | 53° |
| 2026-05-04 02:10 | 34.32355 | -117.74031 | 26254 ft | 505 kts | 53° |
| 2026-05-04 02:10 | 34.34329 | -117.70494 | 26655 ft | 508 kts | 53° |
| 2026-05-04 02:10 | 34.36321 | -117.66957 | 27052 ft | 510 kts | 52° |
| 2026-05-04 02:10 | 34.38378 | -117.63440 | 27404 ft | 512 kts | 51° |
| 2026-05-04 02:11 | 34.40477 | -117.59950 | 27750 ft | 514 kts | 50° |
| 2026-05-04 02:11 | 34.42598 | -117.56468 | 28109 ft | 517 kts | 50° |
| 2026-05-04 02:11 | 34.44742 | -117.52947 | 28481 ft | 519 kts | 50° |
| 2026-05-04 02:11 | 34.46881 | -117.49411 | 28842 ft | 522 kts | 50° |
| 2026-05-04 02:12 | 34.49022 | -117.45843 | 29205 ft | 525 kts | 50° |
| 2026-05-04 02:12 | 34.51157 | -117.42252 | 29557 ft | 527 kts | 50° |
| 2026-05-04 02:12 | 34.53274 | -117.38669 | 29906 ft | 529 kts | 50° |
| 2026-05-04 02:12 | 34.55439 | -117.34994 | 30198 ft | 532 kts | 50° |
| 2026-05-04 02:13 | 34.57596 | -117.31330 | 30437 ft | 535 kts | 50° |
| 2026-05-04 02:13 | 34.59749 | -117.27684 | 30662 ft | 539 kts | 50° |
| 2026-05-04 02:13 | 34.61939 | -117.23980 | 30880 ft | 542 kts | 50° |
| 2026-05-04 02:13 | 34.64140 | -117.20260 | 31084 ft | 546 kts | 50° |
| 2026-05-04 02:14 | 34.66368 | -117.16495 | 31297 ft | 550 kts | 50° |
| 2026-05-04 02:14 | 34.68605 | -117.12707 | 31550 ft | 552 kts | 50° |
| 2026-05-04 02:14 | 34.70843 | -117.08909 | 31844 ft | 554 kts | 49° |
| 2026-05-04 02:14 | 34.73083 | -117.05101 | 32082 ft | 556 kts | 49° |
| 2026-05-04 02:15 | 34.75332 | -117.01270 | 32369 ft | 558 kts | 49° |
| 2026-05-04 02:15 | 34.77593 | -116.97411 | 32655 ft | 560 kts | 49° |
| 2026-05-04 02:15 | 34.79858 | -116.93543 | 32950 ft | 562 kts | 49° |
| 2026-05-04 02:15 | 34.82124 | -116.89672 | 33236 ft | 564 kts | 49° |
| 2026-05-04 02:16 | 34.84404 | -116.85776 | 33506 ft | 566 kts | 49° |
| 2026-05-04 02:16 | 34.86694 | -116.81859 | 33796 ft | 568 kts | 49° |
| 2026-05-04 02:16 | 34.88987 | -116.77930 | 34047 ft | 569 kts | 49° |
| 2026-05-04 02:16 | 34.91290 | -116.74005 | 34343 ft | 568 kts | 46° |
| 2026-05-04 02:17 | 34.93817 | -116.70357 | 34636 ft | 560 kts | 39° |
| 2026-05-04 02:17 | 34.96466 | -116.66876 | 34969 ft | 559 kts | 39° |
| 2026-05-04 02:17 | 34.99106 | -116.63411 | 35307 ft | 558 kts | 40° |
| 2026-05-04 02:17 | 35.01750 | -116.59941 | 35646 ft | 557 kts | 40° |
| 2026-05-04 02:18 | 35.04375 | -116.56487 | 35997 ft | 556 kts | 40° |
| 2026-05-04 02:18 | 35.07006 | -116.53013 | 36329 ft | 555 kts | 40° |
| 2026-05-04 02:18 | 35.09585 | -116.49599 | 36661 ft | 554 kts | 40° |
| 2026-05-04 02:18 | 35.12189 | -116.46150 | 36794 ft | 552 kts | 40° |
| 2026-05-04 02:19 | 35.17327 | -116.39329 | 36807 ft | 541 kts | 40° |
| 2026-05-04 02:19 | 35.22405 | -116.32589 | 36794 ft | 538 kts | 40° |
| 2026-05-04 02:20 | 35.27476 | -116.25861 | 36788 ft | 537 kts | 40° |
| 2026-05-04 02:20 | 35.32513 | -116.19159 | 36779 ft | 535 kts | 41° |
| 2026-05-04 02:21 | 35.37542 | -116.12431 | 36795 ft | 536 kts | 41° |
| 2026-05-04 02:21 | 35.42575 | -116.05697 | 36813 ft | 535 kts | 41° |
| 2026-05-04 02:22 | 35.47598 | -115.98970 | 36823 ft | 534 kts | 41° |
| 2026-05-04 02:22 | 35.52602 | -115.92244 | 36830 ft | 533 kts | 41° |
| 2026-05-04 02:23 | 35.57584 | -115.85530 | 36837 ft | 531 kts | 42° |
| 2026-05-04 02:23 | 35.62554 | -115.78819 | 36840 ft | 530 kts | 42° |
| 2026-05-04 02:24 | 35.67494 | -115.72105 | 36843 ft | 529 kts | 43° |
| 2026-05-04 02:24 | 35.72354 | -115.65407 | 36842 ft | 528 kts | 43° |
| 2026-05-04 02:25 | 35.77229 | -115.58667 | 36834 ft | 527 kts | 43° |
| 2026-05-04 02:25 | 35.82099 | -115.51943 | 36846 ft | 526 kts | 43° |
| 2026-05-04 02:26 | 35.86969 | -115.45212 | 36839 ft | 525 kts | 43° |
| 2026-05-04 02:26 | 35.91818 | -115.38488 | 36837 ft | 524 kts | 44° |
| 2026-05-04 02:27 | 35.96654 | -115.31765 | 36833 ft | 524 kts | 43° |
| 2026-05-04 02:27 | 36.01488 | -115.25030 | 36833 ft | 523 kts | 43° |
| 2026-05-04 02:28 | 36.06233 | -115.18216 | 36795 ft | 526 kts | 50° |
| 2026-05-04 02:28 | 36.09740 | -115.10253 | 36797 ft | 531 kts | 69° |
| 2026-05-04 02:29 | 36.11917 | -115.03154 | 36792 ft | 531 kts | 68° |
| 2026-05-04 02:29 | 36.14562 | -114.94601 | 36717 ft | 532 kts | 68° |
| 2026-05-04 02:30 | 36.17190 | -114.86052 | 36708 ft | 532 kts | 68° |
| 2026-05-04 02:30 | 36.19814 | -114.77496 | 36692 ft | 532 kts | 68° |
| 2026-05-04 02:31 | 36.22435 | -114.68939 | 36680 ft | 531 kts | 69° |
| 2026-05-04 02:31 | 36.25048 | -114.60392 | 36667 ft | 531 kts | 69° |
| 2026-05-04 02:32 | 36.27655 | -114.51836 | 36671 ft | 531 kts | 69° |
| 2026-05-04 02:32 | 36.30254 | -114.43267 | 36674 ft | 530 kts | 69° |
| 2026-05-04 02:33 | 36.32832 | -114.34730 | 36675 ft | 530 kts | 69° |
| 2026-05-04 02:33 | 36.35416 | -114.26151 | 36678 ft | 530 kts | 69° |
| 2026-05-04 02:34 | 36.37991 | -114.17586 | 36697 ft | 530 kts | 69° |
| 2026-05-04 02:34 | 36.40555 | -114.09059 | 36697 ft | 530 kts | 69° |
| 2026-05-04 02:35 | 36.43116 | -114.00482 | 36720 ft | 530 kts | 69° |
| 2026-05-04 02:35 | 36.45668 | -113.91906 | 36744 ft | 530 kts | 69° |
| 2026-05-04 02:36 | 36.48217 | -113.83314 | 36746 ft | 530 kts | 69° |
| 2026-05-04 02:36 | 36.50759 | -113.74721 | 36755 ft | 530 kts | 69° |
| 2026-05-04 02:37 | 36.53291 | -113.66124 | 36764 ft | 530 kts | 69° |
| 2026-05-04 02:37 | 36.55825 | -113.57519 | 36774 ft | 530 kts | 69° |
| 2026-05-04 02:38 | 36.58357 | -113.48922 | 36798 ft | 530 kts | 69° |
| 2026-05-04 02:38 | 36.60881 | -113.40297 | 36808 ft | 530 kts | 69° |
| 2026-05-04 02:39 | 36.63386 | -113.31685 | 36817 ft | 529 kts | 69° |
| 2026-05-04 02:39 | 36.65889 | -113.23066 | 36836 ft | 529 kts | 69° |
| 2026-05-04 02:40 | 36.68381 | -113.14445 | 36885 ft | 529 kts | 69° |
| 2026-05-04 02:40 | 36.70864 | -113.05812 | 36923 ft | 529 kts | 69° |
| 2026-05-04 02:41 | 36.73337 | -112.97196 | 36946 ft | 529 kts | 69° |
| 2026-05-04 02:41 | 36.75814 | -112.88566 | 36937 ft | 528 kts | 69° |
| 2026-05-04 02:42 | 36.78281 | -112.79943 | 36933 ft | 528 kts | 69° |
| 2026-05-04 02:42 | 36.80716 | -112.71363 | 36921 ft | 528 kts | 69° |
| 2026-05-04 02:43 | 36.83181 | -112.62661 | 36906 ft | 528 kts | 69° |
| 2026-05-04 02:43 | 36.85622 | -112.54029 | 36901 ft | 527 kts | 69° |
| 2026-05-04 02:44 | 36.88038 | -112.45459 | 36895 ft | 527 kts | 69° |
| 2026-05-04 02:44 | 36.90469 | -112.36819 | 36920 ft | 527 kts | 69° |
| 2026-05-04 02:45 | 36.92888 | -112.28176 | 36930 ft | 527 kts | 69° |
| 2026-05-04 02:45 | 36.95302 | -112.19528 | 36939 ft | 527 kts | 69° |
| 2026-05-04 02:46 | 36.97715 | -112.10880 | 36936 ft | 527 kts | 69° |
| 2026-05-04 02:46 | 37.00120 | -112.02232 | 36931 ft | 526 kts | 69° |
| 2026-05-04 02:47 | 37.02522 | -111.93570 | 36923 ft | 526 kts | 69° |
| 2026-05-04 02:47 | 37.04914 | -111.84916 | 36910 ft | 526 kts | 69° |
| 2026-05-04 02:48 | 37.07296 | -111.76242 | 36904 ft | 526 kts | 69° |
| 2026-05-04 02:48 | 37.09669 | -111.67587 | 36908 ft | 526 kts | 69° |
| 2026-05-04 02:49 | 37.12039 | -111.58905 | 36903 ft | 526 kts | 69° |
| 2026-05-04 02:49 | 37.14638 | -111.49358 | 36903 ft | 526 kts | 69° |
| 2026-05-04 02:50 | 37.19346 | -111.32008 | 36884 ft | 526 kts | 69° |
| 2026-05-04 02:50 | 37.24857 | -111.15107 | 36859 ft | 522 kts | 59° |
| 2026-05-04 02:51 | 37.31325 | -110.98835 | 36841 ft | 524 kts | 60° |
| 2026-05-04 02:51 | 37.37808 | -110.82422 | 36854 ft | 526 kts | 60° |
| 2026-05-04 02:52 | 37.44312 | -110.65955 | 36853 ft | 527 kts | 60° |
| 2026-05-04 02:52 | 37.50796 | -110.49373 | 36854 ft | 528 kts | 60° |
| 2026-05-04 02:53 | 37.57265 | -110.32755 | 36850 ft | 527 kts | 60° |
| 2026-05-04 02:53 | 37.63714 | -110.16115 | 36865 ft | 528 kts | 60° |
| 2026-05-04 02:54 | 37.70123 | -109.99469 | 36904 ft | 527 kts | 60° |
| 2026-05-04 02:54 | 37.76501 | -109.82807 | 36945 ft | 526 kts | 60° |
| 2026-05-04 02:55 | 37.86023 | -109.57833 | 36965 ft | 525 kts | 60° |
| 2026-05-04 02:56 | 37.91630 | -109.43028 | 36935 ft | 524 kts | 60° |
| 2026-05-04 02:56 | 37.94763 | -109.34700 | 36927 ft | 524 kts | 60° |
| 2026-05-04 02:57 | 37.97873 | -109.26408 | 36932 ft | 523 kts | 60° |
| 2026-05-04 02:57 | 38.01015 | -109.18033 | 36932 ft | 523 kts | 60° |
| 2026-05-04 02:58 | 38.04132 | -109.09704 | 36929 ft | 522 kts | 60° |
| 2026-05-04 02:58 | 38.07212 | -109.01442 | 36924 ft | 521 kts | 60° |
| 2026-05-04 02:59 | 38.10304 | -108.93127 | 36923 ft | 520 kts | 60° |
| 2026-05-04 02:59 | 38.13477 | -108.84879 | 36915 ft | 519 kts | 59° |
| 2026-05-04 03:00 | 38.16741 | -108.76711 | 36914 ft | 518 kts | 58° |
| 2026-05-04 03:00 | 38.19997 | -108.68539 | 36919 ft | 518 kts | 59° |
| 2026-05-04 03:01 | 38.23206 | -108.60344 | 36919 ft | 517 kts | 59° |
| 2026-05-04 03:01 | 38.26389 | -108.52133 | 36928 ft | 517 kts | 59° |
| 2026-05-04 03:02 | 38.29563 | -108.43936 | 36939 ft | 516 kts | 59° |
| 2026-05-04 03:02 | 38.32983 | -108.35114 | 36939 ft | 515 kts | 59° |
| 2026-05-04 03:03 | 38.42920 | -108.09358 | 37010 ft | 512 kts | 59° |
| 2026-05-04 03:03 | 38.49156 | -107.93012 | 37068 ft | 512 kts | 60° |
| 2026-05-04 03:04 | 38.55287 | -107.76765 | 37056 ft | 510 kts | 60° |
| 2026-05-04 03:04 | 38.60038 | -107.64086 | 36968 ft | 506 kts | 60° |
| 2026-05-04 03:05 | 38.63067 | -107.55984 | 36947 ft | 505 kts | 60° |
| 2026-05-04 03:05 | 38.66082 | -107.47879 | 36932 ft | 504 kts | 60° |
| 2026-05-04 03:06 | 38.69125 | -107.39802 | 36946 ft | 503 kts | 59° |
| 2026-05-04 03:06 | 38.72187 | -107.31769 | 36954 ft | 502 kts | 59° |
| 2026-05-04 03:07 | 38.75233 | -107.23732 | 36996 ft | 502 kts | 59° |
| 2026-05-04 03:07 | 38.78259 | -107.15667 | 37020 ft | 502 kts | 60° |
| 2026-05-04 03:07 | 38.79782 | -107.11597 | 36780 ft | 511 kts | 60° |
| 2026-05-04 03:08 | 38.81323 | -107.07484 | 36528 ft | 512 kts | 60° |
| 2026-05-04 03:08 | 38.82861 | -107.03382 | 36271 ft | 510 kts | 60° |
| 2026-05-04 03:08 | 38.84395 | -106.99289 | 36023 ft | 507 kts | 60° |
| 2026-05-04 03:08 | 38.85913 | -106.95222 | 35762 ft | 504 kts | 60° |
| 2026-05-04 03:09 | 38.87424 | -106.91160 | 35503 ft | 501 kts | 60° |
| 2026-05-04 03:09 | 38.88917 | -106.87142 | 35263 ft | 498 kts | 60° |
| 2026-05-04 03:09 | 38.90403 | -106.83141 | 35027 ft | 494 kts | 60° |
| 2026-05-04 03:09 | 38.91873 | -106.79186 | 34798 ft | 491 kts | 61° |
| 2026-05-04 03:10 | 38.93341 | -106.75233 | 34557 ft | 487 kts | 61° |
| 2026-05-04 03:10 | 38.94789 | -106.71327 | 34326 ft | 484 kts | 61° |
| 2026-05-04 03:10 | 38.96222 | -106.67440 | 34086 ft | 480 kts | 61° |
| 2026-05-04 03:10 | 38.97647 | -106.63572 | 33827 ft | 476 kts | 61° |
| 2026-05-04 03:11 | 38.99059 | -106.59737 | 33410 ft | 472 kts | 62° |
| 2026-05-04 03:11 | 39.00456 | -106.55946 | 32976 ft | 469 kts | 62° |
| 2026-05-04 03:11 | 39.01844 | -106.52162 | 32517 ft | 465 kts | 62° |
| 2026-05-04 03:11 | 39.03216 | -106.48415 | 32058 ft | 462 kts | 62° |
| 2026-05-04 03:12 | 39.04580 | -106.44688 | 31616 ft | 459 kts | 62° |
| 2026-05-04 03:12 | 39.05941 | -106.40961 | 31167 ft | 463 kts | 62° |
| 2026-05-04 03:12 | 39.07304 | -106.37226 | 30713 ft | 471 kts | 62° |
| 2026-05-04 03:12 | 39.08695 | -106.33408 | 30254 ft | 470 kts | 62° |
| 2026-05-04 03:13 | 39.10096 | -106.29556 | 29752 ft | 466 kts | 62° |
| 2026-05-04 03:13 | 39.11443 | -106.25847 | 29302 ft | 463 kts | 63° |
| 2026-05-04 03:13 | 39.12798 | -106.22098 | 28849 ft | 459 kts | 63° |
| 2026-05-04 03:13 | 39.14136 | -106.18388 | 28410 ft | 456 kts | 63° |
| 2026-05-04 03:14 | 39.15473 | -106.14688 | 27951 ft | 453 kts | 63° |
| 2026-05-04 03:14 | 39.16798 | -106.11022 | 27495 ft | 450 kts | 63° |
| 2026-05-04 03:14 | 39.18112 | -106.07381 | 27043 ft | 447 kts | 63° |
| 2026-05-04 03:14 | 39.19416 | -106.03759 | 26582 ft | 444 kts | 63° |
| 2026-05-04 03:15 | 39.20711 | -106.00158 | 26124 ft | 441 kts | 63° |
| 2026-05-04 03:15 | 39.21992 | -105.96581 | 25648 ft | 438 kts | 63° |
| 2026-05-04 03:15 | 39.23263 | -105.93022 | 25163 ft | 435 kts | 63° |
| 2026-05-04 03:15 | 39.24521 | -105.89502 | 24701 ft | 432 kts | 63° |
| 2026-05-04 03:16 | 39.25784 | -105.85989 | 24247 ft | 429 kts | 63° |
| 2026-05-04 03:16 | 39.27036 | -105.82522 | 23810 ft | 427 kts | 63° |
| 2026-05-04 03:16 | 39.28290 | -105.79047 | 23350 ft | 424 kts | 63° |
| 2026-05-04 03:16 | 39.29530 | -105.75609 | 22915 ft | 421 kts | 63° |
| 2026-05-04 03:17 | 39.30756 | -105.72199 | 22496 ft | 417 kts | 63° |
| 2026-05-04 03:17 | 39.31970 | -105.68817 | 22084 ft | 414 kts | 63° |
| 2026-05-04 03:17 | 39.33174 | -105.65464 | 21676 ft | 411 kts | 63° |
| 2026-05-04 03:17 | 39.34380 | -105.62137 | 21282 ft | 408 kts | 63° |
| 2026-05-04 03:18 | 39.35574 | -105.58867 | 20885 ft | 405 kts | 63° |
| 2026-05-04 03:18 | 39.36787 | -105.55553 | 20502 ft | 403 kts | 63° |
| 2026-05-04 03:18 | 39.37978 | -105.52292 | 20105 ft | 400 kts | 63° |
| 2026-05-04 03:18 | 39.39147 | -105.49086 | 19734 ft | 398 kts | 63° |
| 2026-05-04 03:19 | 39.40320 | -105.45869 | 19350 ft | 395 kts | 63° |
| 2026-05-04 03:19 | 39.41046 | -105.43673 | 19079 ft | 394 kts | 70° |
| 2026-05-04 03:19 | 39.41703 | -105.39068 | 18480 ft | 393 kts | 88° |
| 2026-05-04 03:19 | 39.41724 | -105.35555 | 17937 ft | 392 kts | 90° |
| 2026-05-04 03:20 | 39.41739 | -105.32030 | 17415 ft | 388 kts | 89° |
| 2026-05-04 03:20 | 39.41756 | -105.28558 | 16922 ft | 385 kts | 89° |
| 2026-05-04 03:20 | 39.41768 | -105.26270 | 16590 ft | 383 kts | 90° |
| 2026-05-04 03:20 | 39.41787 | -105.22835 | 16105 ft | 380 kts | 89° |
| 2026-05-04 03:21 | 39.41806 | -105.19392 | 15606 ft | 377 kts | 89° |
| 2026-05-04 03:21 | 39.41820 | -105.16066 | 15131 ft | 374 kts | 89° |
| 2026-05-04 03:21 | 39.41833 | -105.12671 | 14637 ft | 371 kts | 89° |
| 2026-05-04 03:21 | 39.41845 | -105.09395 | 14174 ft | 368 kts | 89° |
| 2026-05-04 03:22 | 39.41857 | -105.06100 | 13821 ft | 362 kts | 89° |
| 2026-05-04 03:22 | 39.41868 | -105.02844 | 13286 ft | 360 kts | 89° |
| 2026-05-04 03:22 | 39.41878 | -104.99690 | 13191 ft | 337 kts | 89° |
| 2026-05-04 03:22 | 39.41883 | -104.96801 | 13099 ft | 308 kts | 88° |
| 2026-05-04 03:23 | 39.41911 | -104.94138 | 12987 ft | 286 kts | 83° |
| 2026-05-04 03:23 | 39.42129 | -104.91628 | 12703 ft | 277 kts | 81° |
| 2026-05-04 03:23 | 39.42347 | -104.89197 | 12433 ft | 270 kts | 81° |
| 2026-05-04 03:23 | 39.42562 | -104.86787 | 12172 ft | 268 kts | 82° |
| 2026-05-04 03:24 | 39.42777 | -104.84397 | 11902 ft | 266 kts | 81° |
| 2026-05-04 03:24 | 39.42988 | -104.82022 | 11626 ft | 264 kts | 81° |
| 2026-05-04 03:24 | 39.43231 | -104.79676 | 11352 ft | 262 kts | 73° |
| 2026-05-04 03:24 | 39.43966 | -104.77569 | 11087 ft | 255 kts | 51° |
| 2026-05-04 03:25 | 39.45223 | -104.76023 | 10894 ft | 246 kts | 28° |
| 2026-05-04 03:25 | 39.46789 | -104.75186 | 10770 ft | 245 kts | 11° |
| 2026-05-04 03:25 | 39.48448 | -104.74681 | 10630 ft | 245 kts | 11° |
| 2026-05-04 03:25 | 39.50091 | -104.74173 | 10495 ft | 245 kts | 11° |
| 2026-05-04 03:26 | 39.51762 | -104.73651 | 10352 ft | 244 kts | 11° |
| 2026-05-04 03:26 | 39.53414 | -104.73131 | 10211 ft | 244 kts | 11° |
| 2026-05-04 03:26 | 39.55037 | -104.72617 | 10074 ft | 243 kts | 11° |
| 2026-05-04 03:26 | 39.56676 | -104.72100 | 9920 ft | 243 kts | 11° |
| 2026-05-04 03:27 | 39.58326 | -104.71580 | 9766 ft | 243 kts | 11° |
| 2026-05-04 03:27 | 39.59966 | -104.71062 | 9580 ft | 243 kts | 11° |
| 2026-05-04 03:27 | 39.61603 | -104.70543 | 9459 ft | 243 kts | 11° |
| 2026-05-04 03:27 | 39.63241 | -104.70020 | 9312 ft | 242 kts | 11° |
| 2026-05-04 03:28 | 39.64876 | -104.69501 | 9168 ft | 242 kts | 11° |
| 2026-05-04 03:28 | 39.66519 | -104.69059 | 9027 ft | 240 kts | 4° |
| 2026-05-04 03:28 | 39.68173 | -104.68918 | 8772 ft | 232 kts | 358° |
| 2026-05-04 03:28 | 39.69757 | -104.68902 | 8469 ft | 225 kts | 357° |
| 2026-05-04 03:29 | 39.71311 | -104.68892 | 8254 ft | 223 kts | 357° |
| 2026-05-04 03:29 | 39.72852 | -104.68876 | 7999 ft | 220 kts | 357° |
| 2026-05-04 03:29 | 39.74321 | -104.68857 | 7746 ft | 201 kts | 357° |
| 2026-05-04 03:29 | 39.75665 | -104.68841 | 7481 ft | 186 kts | 357° |
| 2026-05-04 03:30 | 39.76915 | -104.68826 | 7269 ft | 171 kts | 357° |
| 2026-05-04 03:30 | 39.78074 | -104.68813 | 7046 ft | 163 kts | 356° |
| 2026-05-04 03:30 | 39.79205 | -104.68804 | 6827 ft | 163 kts | 357° |
| 2026-05-04 03:30 | 39.80325 | -104.68792 | 6607 ft | 162 kts | 358° |
| 2026-05-04 03:31 | 39.81443 | -104.68790 | 6428 ft | 164 kts | 356° |
| 2026-05-04 03:31 | 39.82607 | -104.68776 | 6237 ft | 168 kts | 358° |
| 2026-05-04 03:31 | 39.83747 | -104.68750 | 5935 ft | 165 kts | 357° |
| 2026-05-04 03:31 | 39.84887 | -104.68732 | 5730 ft | 164 kts | 355° |
| 2026-05-04 03:32 | 39.86011 | -104.68729 | 5475 ft | 160 kts | 356° |
| 2026-05-04 03:32 | 39.87107 | -104.68719 | 5358 ft | 151 kts | 357° |
| 2026-05-04 03:32 | 39.87986 | -104.68705 | 5364 ft | 102 kts | 2° |
| 2026-05-04 03:32 | 39.88441 | -104.68686 | 5356 ft | 29 kts | 23° |
| 2026-05-04 03:33 | 39.88586 | -104.68576 | 5357 ft | 19 kts | 34° |
| 2026-05-04 03:33 | 39.88554 | -104.68490 | 5357 ft | 15 kts | 173° |
| 2026-05-04 03:33 | 39.88437 | -104.68482 | 5357 ft | 18 kts | 179° |
| 2026-05-04 03:33 | 39.88309 | -104.68485 | 5360 ft | 19 kts | 180° |
| 2026-05-04 03:34 | 39.88176 | -104.68486 | 5362 ft | 20 kts | 180° |
| 2026-05-04 03:34 | 39.88032 | -104.68486 | 5363 ft | 22 kts | 181° |
| 2026-05-04 03:34 | 39.87875 | -104.68490 | 5364 ft | 23 kts | 181° |
| 2026-05-04 03:34 | 39.87704 | -104.68493 | 5364 ft | 26 kts | 181° |
| 2026-05-04 03:35 | 39.87515 | -104.68495 | 5363 ft | 28 kts | 180° |
| 2026-05-04 03:35 | 39.87309 | -104.68496 | 5358 ft | 31 kts | 179° |
| 2026-05-04 03:35 | 39.87090 | -104.68499 | 5360 ft | 32 kts | 180° |
| 2026-05-04 03:35 | 39.86865 | -104.68499 | 5361 ft | 32 kts | 181° |
| 2026-05-04 03:36 | 39.86646 | -104.68505 | 5365 ft | 32 kts | 181° |
| 2026-05-04 03:36 | 39.86423 | -104.68503 | 5367 ft | 32 kts | 180° |
| 2026-05-04 03:36 | 39.86197 | -104.68509 | 5364 ft | 34 kts | 179° |
| 2026-05-04 03:36 | 39.85959 | -104.68506 | 5364 ft | 34 kts | 181° |
| 2026-05-04 03:37 | 39.85719 | -104.68513 | 5366 ft | 34 kts | 180° |
| 2026-05-04 03:37 | 39.85501 | -104.68516 | 5371 ft | 28 kts | 182° |
| 2026-05-04 03:37 | 39.85339 | -104.68511 | 5373 ft | 5 kts | 150° |
| 2026-05-04 03:37 | 39.85316 | -104.68464 | 5376 ft | 6 kts | 108° |
| 2026-05-04 03:38 | 39.85310 | -104.68394 | 5378 ft | 11 kts | 91° |
| 2026-05-04 03:38 | 39.85309 | -104.68266 | 5385 ft | 17 kts | 90° |
| 2026-05-04 03:38 | 39.85286 | -104.68104 | 5384 ft | 19 kts | 93° |
| 2026-05-04 03:38 | 39.85282 | -104.67915 | 5384 ft | 22 kts | 90° |
| 2026-05-04 03:39 | 39.85280 | -104.67702 | 5384 ft | 25 kts | 91° |
| 2026-05-04 03:39 | 39.85279 | -104.67489 | 5385 ft | 24 kts | 91° |
| 2026-05-04 03:39 | 39.85277 | -104.67272 | 5386 ft | 22 kts | 92° |
| 2026-05-04 03:39 | 39.85276 | -104.67068 | 5387 ft | 18 kts | 91° |
| 2026-05-04 03:40 | 39.85275 | -104.67020 | 5388 ft | 1 kts | 91° |
| 2026-05-04 03:40 | 39.85279 | -104.66978 | 5389 ft | 6 kts | 68° |
| 2026-05-04 03:40 | 39.85323 | -104.66953 | 5389 ft | 8 kts | 3° |
| 2026-05-04 03:40 | 39.85336 | -104.66952 | 5390 ft | 0 kts | 3° |